createdAt,value
2019-01-11T00:01:40.997Z,15.77
2019-01-11T00:04:09.764Z,16.20
2019-01-11T00:06:38.421Z,16.10
2019-01-11T00:09:11.154Z,15.03
2019-01-11T00:11:39.921Z,15.50
2019-01-11T00:14:08.640Z,14.93
2019-01-11T00:16:37.408Z,15.33
2019-01-11T00:19:07.221Z,15.00
2019-01-11T00:21:36.116Z,13.03
2019-01-11T00:24:06.109Z,14.43
2019-01-11T00:26:34.820Z,15.83
2019-01-11T00:29:03.606Z,18.23
2019-01-11T00:31:32.275Z,18.63
2019-01-11T00:34:00.919Z,17.67
2019-01-11T00:36:29.638Z,18.83
2019-01-11T00:38:59.579Z,20.43
2019-01-11T00:41:28.478Z,22.30
2019-01-11T00:43:57.202Z,20.53
2019-01-11T00:46:25.990Z,26.07
2019-01-11T00:48:54.649Z,22.07
2019-01-11T00:51:23.313Z,19.40
2019-01-11T00:53:51.998Z,19.73
2019-01-11T00:56:20.761Z,17.70
2019-01-11T00:58:49.467Z,18.13
2019-01-11T01:01:18.189Z,17.67
2019-01-11T01:03:46.917Z,16.97
2019-01-11T01:06:15.739Z,16.47
2019-01-11T01:08:44.462Z,15.33
2019-01-11T01:11:13.235Z,14.50
2019-01-11T01:13:41.890Z,12.53
2019-01-11T01:16:10.650Z,14.00
2019-01-11T01:18:39.306Z,13.43
2019-01-11T01:21:08.247Z,12.13
2019-01-11T01:23:36.894Z,14.93
2019-01-11T01:26:05.781Z,12.27
2019-01-11T01:28:34.899Z,12.97
2019-01-11T01:31:03.622Z,11.83
2019-01-11T01:33:32.333Z,12.03
2019-01-11T01:36:00.974Z,12.80
2019-01-11T01:38:29.745Z,12.83
2019-01-11T01:40:58.465Z,13.87
2019-01-11T01:43:27.236Z,17.30
2019-01-11T01:45:55.843Z,16.27
2019-01-11T01:48:24.495Z,16.60
2019-01-11T01:50:53.198Z,18.33
2019-01-11T01:53:21.854Z,15.80
2019-01-11T01:55:50.506Z,17.17
2019-01-11T01:58:19.209Z,16.63
2019-01-11T02:00:48.017Z,17.73
2019-01-11T02:03:16.698Z,17.47
2019-01-11T02:05:45.394Z,16.37
2019-01-11T02:08:14.175Z,18.50
2019-01-11T02:10:42.793Z,16.43
2019-01-11T02:13:11.426Z,17.77
2019-01-11T02:15:40.082Z,19.23
2019-01-11T02:18:08.778Z,20.23
2019-01-11T02:20:37.536Z,19.87
2019-01-11T02:23:06.265Z,21.37
2019-01-11T02:25:35.034Z,20.93
2019-01-11T02:28:03.687Z,21.73
2019-01-11T02:30:32.448Z,23.87
2019-01-11T02:33:01.114Z,24.03
2019-01-11T02:35:29.769Z,23.23
2019-01-11T02:37:58.419Z,25.20
2019-01-11T02:40:27.181Z,25.57
2019-01-11T02:42:55.775Z,24.67
2019-01-11T02:45:24.536Z,25.87
2019-01-11T02:47:53.293Z,25.70
2019-01-11T02:50:21.953Z,24.83
2019-01-11T02:52:50.701Z,25.00
2019-01-11T02:55:19.386Z,24.67
2019-01-11T02:57:47.970Z,26.23
2019-01-11T03:00:19.005Z,24.33
2019-01-11T03:02:47.996Z,23.20
2019-01-11T03:05:17.043Z,23.90
2019-01-11T03:07:46.518Z,23.17
2019-01-11T03:10:20.623Z,23.67
2019-01-11T03:12:49.494Z,24.40
2019-01-11T03:15:19.521Z,23.37
2019-01-11T03:17:48.311Z,24.33
2019-01-11T03:20:18.483Z,22.27
2019-01-11T03:22:47.206Z,22.07
2019-01-11T03:25:16.655Z,22.97
2019-01-11T03:27:45.352Z,24.10
2019-01-11T03:30:19.265Z,22.30
2019-01-11T03:32:48.186Z,22.70
2019-01-11T03:35:18.317Z,22.87
2019-01-11T03:37:48.503Z,22.33
2019-01-11T03:40:22.054Z,21.73
2019-01-11T03:42:50.838Z,21.43
2019-01-11T03:45:21.254Z,22.00
2019-01-11T03:47:49.886Z,21.97
2019-01-11T03:50:19.814Z,21.40
2019-01-11T03:52:48.584Z,21.73
2019-01-11T03:55:38.079Z,21.83
2019-01-11T03:58:06.888Z,21.90
2019-01-11T04:00:35.588Z,22.47
2019-01-11T04:03:04.363Z,21.93
2019-01-11T04:05:32.931Z,23.13
2019-01-11T04:08:01.629Z,22.63
2019-01-11T04:10:30.349Z,22.00
2019-01-11T04:12:59.018Z,22.53
2019-01-11T04:15:27.638Z,20.63
2019-01-11T04:18:06.966Z,22.10
2019-01-11T04:20:35.662Z,22.50
2019-01-11T04:23:04.410Z,19.77
2019-01-11T04:25:33.381Z,18.63
2019-01-11T04:28:01.975Z,17.07
2019-01-11T04:30:30.591Z,16.07
2019-01-11T04:32:59.180Z,18.17
2019-01-11T04:35:27.878Z,18.00
2019-01-11T04:37:56.529Z,17.03
2019-01-11T04:40:25.222Z,18.33
2019-01-11T04:42:53.854Z,18.93
2019-01-11T04:45:22.476Z,18.83
2019-01-11T04:47:51.128Z,18.63
2019-01-11T04:50:19.820Z,17.93
2019-01-11T04:52:48.526Z,18.50
2019-01-11T04:55:17.248Z,20.10
2019-01-11T04:57:45.908Z,20.80
2019-01-11T05:00:17.626Z,21.23
2019-01-11T05:02:46.558Z,21.77
2019-01-11T05:05:15.579Z,21.20
2019-01-11T05:07:44.279Z,21.20
2019-01-11T05:10:15.507Z,23.07
2019-01-11T05:12:44.133Z,23.30
2019-01-11T05:15:12.903Z,22.73
2019-01-11T05:17:41.620Z,24.57
2019-01-11T05:20:16.609Z,26.07
2019-01-11T05:22:42.622Z,24.47
2019-01-11T05:25:11.381Z,24.70
2019-01-11T05:27:40.116Z,26.17
2019-01-11T05:30:11.974Z,26.87
2019-01-11T05:32:40.735Z,28.63
2019-01-11T05:35:09.438Z,28.20
2019-01-11T05:37:38.131Z,29.20
2019-01-11T05:40:12.694Z,28.87
2019-01-11T05:42:41.410Z,29.57
2019-01-11T05:45:10.232Z,28.33
2019-01-11T05:47:38.856Z,28.20
2019-01-11T05:50:10.653Z,30.60
2019-01-11T05:52:39.817Z,29.60
2019-01-11T05:55:10.913Z,30.40
2019-01-11T05:57:41.205Z,28.27
2019-01-11T06:00:11.666Z,29.27
2019-01-11T06:02:40.255Z,28.97
2019-01-11T06:05:10.657Z,27.97
2019-01-11T06:07:41.023Z,33.33
2019-01-11T06:10:12.918Z,32.00
2019-01-11T06:12:41.640Z,34.77
2019-01-11T06:15:10.405Z,32.27
2019-01-11T06:17:39.129Z,30.77
2019-01-11T06:20:10.829Z,31.83
2019-01-11T06:22:39.516Z,31.10
2019-01-11T06:25:08.297Z,33.07
2019-01-11T06:27:38.453Z,32.57
2019-01-11T06:30:13.317Z,32.67
2019-01-11T06:32:42.089Z,33.67
2019-01-11T06:35:10.858Z,33.30
2019-01-11T06:37:39.681Z,33.50
2019-01-11T06:40:10.529Z,34.70
2019-01-11T06:42:39.183Z,33.50
2019-01-11T06:45:12.262Z,36.87
2019-01-11T06:47:41.030Z,34.47
2019-01-11T06:50:12.701Z,36.43
2019-01-11T06:52:41.392Z,36.63
2019-01-11T06:55:11.208Z,35.00
2019-01-11T06:57:39.966Z,33.43
2019-01-11T07:00:11.664Z,32.23
2019-01-11T07:02:40.385Z,33.87
2019-01-11T07:05:10.951Z,35.30
2019-01-11T07:07:39.677Z,35.70
2019-01-11T07:10:20.106Z,36.40
2019-01-11T07:12:48.833Z,34.07
2019-01-11T07:15:17.955Z,35.40
2019-01-11T07:17:46.648Z,34.87
2019-01-11T07:20:15.880Z,36.53
2019-01-11T07:22:44.569Z,34.10
2019-01-11T07:25:15.058Z,34.03
2019-01-11T07:27:48.182Z,39.30
2019-01-11T07:30:17.714Z,34.80
2019-01-11T07:32:46.411Z,36.57
2019-01-11T07:35:15.070Z,36.97
2019-01-11T07:37:43.767Z,33.60
2019-01-11T07:40:13.085Z,37.77
2019-01-11T07:42:41.778Z,35.03
2019-01-11T07:45:12.769Z,35.37
2019-01-11T07:47:41.458Z,37.33
2019-01-11T07:50:10.716Z,37.97
2019-01-11T07:52:40.199Z,36.60
2019-01-11T07:55:10.011Z,38.17
2019-01-11T07:57:38.877Z,35.07
2019-01-11T08:00:10.887Z,34.90
2019-01-11T08:02:39.679Z,37.00
2019-01-11T08:05:09.342Z,38.03
2019-01-11T08:07:38.066Z,37.03
2019-01-11T08:10:09.631Z,38.63
2019-01-11T08:12:38.349Z,41.77
2019-01-11T08:15:12.671Z,37.63
2019-01-11T08:17:41.365Z,39.67
2019-01-11T08:20:10.134Z,39.10
2019-01-11T08:22:42.753Z,44.33
2019-01-11T08:25:13.984Z,40.50
2019-01-11T08:27:43.378Z,45.10
2019-01-11T08:30:14.753Z,40.90
2019-01-11T08:32:43.470Z,46.77
2019-01-11T08:35:13.730Z,46.20
2019-01-11T08:37:42.427Z,45.80
2019-01-11T08:40:12.796Z,46.43
2019-01-11T08:42:41.486Z,41.13
2019-01-11T08:45:12.918Z,46.97
2019-01-11T08:47:41.572Z,46.03
2019-01-11T08:50:19.041Z,42.70
